KBDR/BDR METAR and TAF weather

Enter ICAO airport designator
Station Type Date Time Source
KBDR METAR 2018/12/10 17:52 UTC NOAA

KBDR 101752Z 36009KT 10SM CLR 04/M08 A3010 RMK AO2 SLP193 T00441083 10044 21044 56016


Station Type Date Time Source
KBDR Decoded METAR 2018/12/10 17:52 UTC NOAA

SIKORSKY MEMORIAL AIRPORT, CT, United States (KBDR) 41-10N 073-08W 7M
Dec 10, 2018 - 12:52 PM EST / 2018.12.10 1752 UTC
Wind: from the N (360 degrees) at 10 MPH (9 KT):0
Visibility: 10 mile(s):0
Sky conditions: clear
Temperature: 39.9 F (4.4 C)
Dew Point: 17.1 F (-8.3 C)
Relative Humidity: 39%
Pressure (altimeter): 30.1 in. Hg (1019 hPa)
Pressure tendency: 0.05 inches (1.6 hPa) lower than three hours ago
ob: KBDR 101752Z 36009KT 10SM CLR 04/M08 A3010 RMK AO2 SLP193 T00441083 10044 21044 56016
cycle: 18

Station Type Date Time Source
KBDR TAF 2018/12/10 18:36 UTC NOAA

TAF KBDR 101734Z 1018/1118 36010KT P6SM SKC
FM102200 36006KT P6SM SKC
FM110300 03006KT P6SM SKC
FM111700 16006KT P6SM SKC


Example: see airport list